sensor_id;sensor_type;location;lat;lon;timestamp;pressure;altitude;pressure_sealevel;temperature;humidity
63111;BME280;49201;53.426;10.300;2023-02-04T08:29:17;103739.69;;;1.80;100.00
63111;BME280;49201;53.426;10.300;2023-02-04T08:31:43;103740.56;;;1.89;100.00
63111;BME280;49201;53.426;10.300;2023-02-04T08:34:09;103743.91;;;1.97;100.00
63111;BME280;49201;53.426;10.300;2023-02-04T08:36:34;103740.47;;;2.05;100.00
63111;BME280;49201;53.426;10.300;2023-02-04T08:39:00;103740.53;;;2.13;100.00
63111;BME280;49201;53.426;10.300;2023-02-04T08:41:25;103734.44;;;2.28;100.00
63111;BME280;49201;53.426;10.300;2023-02-04T08:43:50;103743.09;;;2.47;100.00
63111;BME280;49201;53.426;10.300;2023-02-04T08:46:16;103745.47;;;2.63;100.00
63111;BME280;49201;53.426;10.300;2023-02-04T08:48:41;103757.22;;;2.79;100.00
63111;BME280;49201;53.426;10.300;2023-02-04T08:51:07;103743.97;;;2.99;100.00
63111;BME280;49201;53.426;10.300;2023-02-04T08:53:32;103752.88;;;3.12;100.00
63111;BME280;49201;53.426;10.300;2023-02-04T08:55:57;103753.59;;;3.28;100.00
63111;BME280;49201;53.426;10.300;2023-02-04T08:58:23;103758.34;;;3.34;100.00
63111;BME280;49201;53.426;10.300;2023-02-04T09:00:48;103762.47;;;3.50;100.00
63111;BME280;49201;53.426;10.300;2023-02-04T09:03:14;103763.13;;;3.75;100.00
63111;BME280;49201;53.426;10.300;2023-02-04T09:05:39;103762.25;;;4.28;100.00
63111;BME280;49201;53.426;10.300;2023-02-04T09:08:05;103757.19;;;5.59;100.00
63111;BME280;49201;53.426;10.300;2023-02-04T09:10:30;103751.66;;;8.11;100.00
63111;BME280;49201;53.426;10.300;2023-02-04T09:12:55;103757.44;;;10.54;100.00
63111;BME280;49201;53.426;10.300;2023-02-04T09:15:22;103764.59;;;11.77;85.24
63111;BME280;49201;53.426;10.300;2023-02-04T09:17:49;103765.50;;;12.34;75.32
63111;BME280;49201;53.426;10.300;2023-02-04T09:20:14;103767.31;;;13.38;69.39
63111;BME280;49201;53.426;10.300;2023-02-04T09:22:40;103772.28;;;13.35;65.92
63111;BME280;49201;53.426;10.300;2023-02-04T09:25:06;103781.00;;;14.00;63.65
63111;BME280;49201;53.426;10.300;2023-02-04T09:27:31;103776.72;;;14.48;57.20
63111;BME280;49201;53.426;10.300;2023-02-04T09:29:57;103776.63;;;15.50;52.83
63111;BME280;49201;53.426;10.300;2023-02-04T09:32:22;103782.72;;;16.27;49.42
63111;BME280;49201;53.426;10.300;2023-02-04T09:34:48;103775.72;;;16.84;46.52
63111;BME280;49201;53.426;10.300;2023-02-04T09:37:13;103772.47;;;17.53;44.17
63111;BME280;49201;53.426;10.300;2023-02-04T09:39:38;103780.09;;;17.72;42.66
63111;BME280;49201;53.426;10.300;2023-02-04T09:42:04;103761.81;;;18.14;41.87
63111;BME280;49201;53.426;10.300;2023-02-04T09:44:29;103768.03;;;18.68;39.65
63111;BME280;49201;53.426;10.300;2023-02-04T09:46:57;103765.06;;;19.35;38.51
63111;BME280;49201;53.426;10.300;2023-02-04T09:49:24;103760.31;;;20.40;36.25
63111;BME280;49201;53.426;10.300;2023-02-04T09:51:50;103764.94;;;19.04;37.27
63111;BME280;49201;53.426;10.300;2023-02-04T09:54:18;103768.34;;;19.58;38.40
63111;BME280;49201;53.426;10.300;2023-02-04T09:56:45;103769.84;;;20.40;36.77
63111;BME280;49201;53.426;10.300;2023-02-04T09:59:17;103764.44;;;21.00;35.13
63111;BME280;49201;53.426;10.300;2023-02-04T10:01:46;103761.41;;;21.98;33.43
63111;BME280;49201;53.426;10.300;2023-02-04T10:04:13;103758.50;;;22.78;32.30
63111;BME280;49201;53.426;10.300;2023-02-04T10:06:42;103765.63;;;22.87;32.04
63111;BME280;49201;53.426;10.300;2023-02-04T10:09:10;103773.03;;;23.13;31.13
63111;BME280;49201;53.426;10.300;2023-02-04T10:11:37;103762.19;;;24.19;30.26
63111;BME280;49201;53.426;10.300;2023-02-04T10:14:03;103766.72;;;24.33;29.54
63111;BME280;49201;53.426;10.300;2023-02-04T10:16:33;103776.66;;;24.67;28.70
63111;BME280;49201;53.426;10.300;2023-02-04T10:19:06;103769.06;;;25.03;28.69
63111;BME280;49201;53.426;10.300;2023-02-04T10:21:33;103762.69;;;24.68;28.83
63111;BME280;49201;53.426;10.300;2023-02-04T10:24:03;103777.56;;;24.71;28.61
63111;BME280;49201;53.426;10.300;2023-02-04T10:26:31;103775.13;;;24.93;28.52
63111;BME280;49201;53.426;10.300;2023-02-04T10:29:11;103773.88;;;25.88;27.82
63111;BME280;49201;53.426;10.300;2023-02-04T10:31:45;103771.16;;;25.58;26.88
63111;BME280;49201;53.426;10.300;2023-02-04T10:36:40;103777.69;;;24.86;27.33
63111;BME280;49201;53.426;10.300;2023-02-04T10:39:17;103775.59;;;25.71;27.26
63111;BME280;49201;53.426;10.300;2023-02-04T10:42:02;103774.66;;;25.59;26.41
63111;BME280;49201;53.426;10.300;2023-02-04T10:44:30;103784.22;;;25.42;27.41
63111;BME280;49201;53.426;10.300;2023-02-04T10:47:12;103776.66;;;26.24;26.87
63111;BME280;49201;53.426;10.300;2023-02-04T10:49:41;103775.72;;;26.01;26.48
63111;BME280;49201;53.426;10.300;2023-02-04T10:52:16;103785.03;;;25.32;27.21
63111;BME280;49201;53.426;10.300;2023-02-04T10:54:43;103817.44;;;20.34;33.18
63111;BME280;49201;53.426;10.300;2023-02-04T10:57:28;103830.00;;;17.44;38.76
63111;BME280;49201;53.426;10.300;2023-02-04T10:59:59;103828.44;;;16.47;42.76
63111;BME280;49201;53.426;10.300;2023-02-04T11:02:44;103820.81;;;16.31;46.82
63111;BME280;49201;53.426;10.300;2023-02-04T11:05:18;103835.69;;;14.92;48.44
63111;BME280;49201;53.426;10.300;2023-02-04T11:07:45;103839.09;;;15.42;50.26
63111;BME280;49201;53.426;10.300;2023-02-04T11:10:13;103836.84;;;16.22;44.77
63111;BME280;49201;53.426;10.300;2023-02-04T11:15:37;103840.53;;;16.10;46.68
63111;BME280;49201;53.426;10.300;2023-02-04T11:18:08;103846.75;;;14.24;49.03
63111;BME280;49201;53.426;10.300;2023-02-04T11:20:35;103844.13;;;13.16;57.29
63111;BME280;49201;53.426;10.300;2023-02-04T11:23:28;103844.81;;;13.73;52.77
63111;BME280;49201;53.426;10.300;2023-02-04T11:28:28;103826.13;;;17.55;46.34
63111;BME280;49201;53.426;10.300;2023-02-04T11:31:12;103803.88;;;21.14;31.91
63111;BME280;49201;53.426;10.300;2023-02-04T11:33:40;103834.00;;;16.37;38.80
63111;BME280;49201;53.426;10.300;2023-02-04T11:36:09;103841.97;;;14.63;47.48
63111;BME280;49201;53.426;10.300;2023-02-04T11:38:36;103838.25;;;13.64;51.22
63111;BME280;49201;53.426;10.300;2023-02-04T11:41:03;103840.34;;;14.17;48.37
63111;BME280;49201;53.426;10.300;2023-02-04T11:43:33;103837.84;;;14.19;47.45
63111;BME280;49201;53.426;10.300;2023-02-04T11:46:08;103842.69;;;13.36;51.54
63111;BME280;49201;53.426;10.300;2023-02-04T11:48:35;103846.06;;;12.91;55.58
63111;BME280;49201;53.426;10.300;2023-02-04T11:51:02;103823.53;;;18.96;41.67
63111;BME280;49201;53.426;10.300;2023-02-04T11:53:32;103803.66;;;23.20;30.76
63111;BME280;49201;53.426;10.300;2023-02-04T11:55:58;103804.38;;;23.71;29.13
63111;BME280;49201;53.426;10.300;2023-02-04T11:58:24;103824.56;;;23.81;29.06
63111;BME280;49201;53.426;10.300;2023-02-04T12:00:53;103825.00;;;21.26;30.42
63111;BME280;49201;53.426;10.300;2023-02-04T12:05:49;103816.34;;;24.17;27.56
63111;BME280;49201;53.426;10.300;2023-02-04T12:13:28;103830.34;;;22.51;29.45
63111;BME280;49201;53.426;10.300;2023-02-04T12:16:00;103822.72;;;24.44;28.00
63111;BME280;49201;53.426;10.300;2023-02-04T12:18:27;103821.28;;;24.73;27.21
63111;BME280;49201;53.426;10.300;2023-02-04T12:20:54;103835.50;;;21.66;29.26
63111;BME280;49201;53.426;10.300;2023-02-04T12:23:20;103836.97;;;21.16;30.32
63111;BME280;49201;53.426;10.300;2023-02-04T12:25:45;103840.31;;;20.46;31.90
63111;BME280;49201;53.426;10.300;2023-02-04T12:28:11;103831.81;;;22.86;29.76
63111;BME280;49201;53.426;10.300;2023-02-04T12:30:36;103825.53;;;23.25;28.08
63111;BME280;49201;53.426;10.300;2023-02-04T12:33:01;103837.84;;;22.82;29.12
63111;BME280;49201;53.426;10.300;2023-02-04T12:35:27;103847.66;;;21.28;30.68
63111;BME280;49201;53.426;10.300;2023-02-04T12:37:52;103850.72;;;21.11;30.57
63111;BME280;49201;53.426;10.300;2023-02-04T12:40:20;103849.56;;;20.98;30.26
63111;BME280;49201;53.426;10.300;2023-02-04T12:42:45;103840.34;;;22.29;28.85
63111;BME280;49201;53.426;10.300;2023-02-04T12:45:12;103852.28;;;20.39;30.73
63111;BME280;49201;53.426;10.300;2023-02-04T12:47:38;103855.31;;;18.64;32.82
63111;BME280;49201;53.426;10.300;2023-02-04T12:50:05;103853.50;;;18.62;34.61
63111;BME280;49201;53.426;10.300;2023-02-04T12:52:31;103860.44;;;17.70;36.15
63111;BME280;49201;53.426;10.300;2023-02-04T12:54:56;103861.19;;;17.68;36.33
63111;BME280;49201;53.426;10.300;2023-02-04T12:57:21;103860.03;;;17.82;35.62
63111;BME280;49201;53.426;10.300;2023-02-04T12:59:47;103850.03;;;19.92;32.71
63111;BME280;49201;53.426;10.300;2023-02-04T13:02:14;103851.81;;;19.95;31.59
63111;BME280;49201;53.426;10.300;2023-02-04T13:04:39;103859.25;;;19.55;31.24
63111;BME280;49201;53.426;10.300;2023-02-04T13:07:06;103868.94;;;18.34;31.55
63111;BME280;49201;53.426;10.300;2023-02-04T13:09:32;103869.31;;;18.93;32.90
63111;BME280;49201;53.426;10.300;2023-02-04T13:11:58;103878.38;;;18.55;34.77
63111;BME280;49201;53.426;10.300;2023-02-04T13:14:24;103874.13;;;18.12;34.40
63111;BME280;49201;53.426;10.300;2023-02-04T13:16:49;103877.69;;;17.92;34.13
63111;BME280;49201;53.426;10.300;2023-02-04T13:19:15;103879.97;;;17.01;35.74
63111;BME280;49201;53.426;10.300;2023-02-04T13:21:40;103887.78;;;16.82;36.69
63111;BME280;49201;53.426;10.300;2023-02-04T13:24:08;103886.56;;;16.74;37.80
63111;BME280;49201;53.426;10.300;2023-02-04T13:26:34;103881.56;;;17.81;36.68
63111;BME280;49201;53.426;10.300;2023-02-04T13:28:59;103883.22;;;18.01;35.43
63111;BME280;49201;53.426;10.300;2023-02-04T13:31:25;103879.56;;;17.96;35.40
63111;BME280;49201;53.426;10.300;2023-02-04T13:33:50;103884.22;;;18.04;35.95
63111;BME280;49201;53.426;10.300;2023-02-04T13:36:15;103887.88;;;16.83;37.93
63111;BME280;49201;53.426;10.300;2023-02-04T13:38:41;103894.41;;;15.64;39.16
63111;BME280;49201;53.426;10.300;2023-02-04T13:41:07;103888.59;;;15.17;41.87
63111;BME280;49201;53.426;10.300;2023-02-04T13:43:32;103894.75;;;14.38;42.40
63111;BME280;49201;53.426;10.300;2023-02-04T13:45:57;103903.06;;;14.48;43.81
63111;BME280;49201;53.426;10.300;2023-02-04T13:48:23;103904.75;;;14.32;43.88
63111;BME280;49201;53.426;10.300;2023-02-04T13:50:49;103902.81;;;13.67;46.33
63111;BME280;49201;53.426;10.300;2023-02-04T13:53:17;103914.81;;;13.52;50.17
63111;BME280;49201;53.426;10.300;2023-02-04T13:55:42;103912.03;;;13.18;48.61
63111;BME280;49201;53.426;10.300;2023-02-04T13:58:08;103908.06;;;12.81;51.34
63111;BME280;49201;53.426;10.300;2023-02-04T14:00:34;103924.22;;;12.10;53.81
63111;BME280;49201;53.426;10.300;2023-02-04T14:02:59;103917.63;;;11.88;55.65
63111;BME280;49201;53.426;10.300;2023-02-04T14:05:25;103922.31;;;11.67;58.27
63111;BME280;49201;53.426;10.300;2023-02-04T14:07:50;103935.69;;;11.50;60.07
63111;BME280;49201;53.426;10.300;2023-02-04T14:10:16;103930.84;;;11.55;59.90
63111;BME280;49201;53.426;10.300;2023-02-04T14:12:42;103939.09;;;11.25;60.10
63111;BME280;49201;53.426;10.300;2023-02-04T14:15:08;103931.94;;;11.08;62.50
63111;BME280;49201;53.426;10.300;2023-02-04T14:17:34;103934.75;;;10.86;63.56
63111;BME280;49201;53.426;10.300;2023-02-04T14:19:59;103928.38;;;10.68;64.38
63111;BME280;49201;53.426;10.300;2023-02-04T14:22:25;103936.84;;;10.43;65.63
63111;BME280;49201;53.426;10.300;2023-02-04T14:24:50;103938.09;;;10.25;65.68
63111;BME280;49201;53.426;10.300;2023-02-04T14:27:15;103950.06;;;9.90;66.26
63111;BME280;49201;53.426;10.300;2023-02-04T14:29:41;103947.03;;;9.72;68.64
63111;BME280;49201;53.426;10.300;2023-02-04T14:32:06;103948.25;;;9.54;70.67
63111;BME280;49201;53.426;10.300;2023-02-04T14:34:32;103954.38;;;9.33;73.76
63111;BME280;49201;53.426;10.300;2023-02-04T14:36:58;103947.09;;;9.16;74.43
63111;BME280;49201;53.426;10.300;2023-02-04T14:39:23;103945.81;;;8.88;76.74
63111;BME280;49201;53.426;10.300;2023-02-04T14:41:49;103959.84;;;8.72;78.08
63111;BME280;49201;53.426;10.300;2023-02-04T14:44:14;103958.28;;;8.74;78.33
63111;BME280;49201;53.426;10.300;2023-02-04T14:46:45;103950.75;;;8.75;78.59
63111;BME280;49201;53.426;10.300;2023-02-04T14:49:13;103952.47;;;8.65;79.36
63111;BME280;49201;53.426;10.300;2023-02-04T14:51:39;103953.38;;;8.65;79.89
63111;BME280;49201;53.426;10.300;2023-02-04T14:54:04;103954.81;;;8.40;80.29
63111;BME280;49201;53.426;10.300;2023-02-04T14:56:30;103958.34;;;8.21;81.95
63111;BME280;49201;53.426;10.300;2023-02-04T14:58:55;103945.59;;;8.11;85.34
63111;BME280;49201;53.426;10.300;2023-02-04T15:01:21;103947.69;;;7.95;84.93
63111;BME280;49201;53.426;10.300;2023-02-04T15:03:46;103945.56;;;7.89;84.06
63111;BME280;49201;53.426;10.300;2023-02-04T15:06:12;103956.44;;;7.77;87.15
63111;BME280;49201;53.426;10.300;2023-02-04T15:08:37;103956.94;;;7.73;85.84
63111;BME280;49201;53.426;10.300;2023-02-04T15:11:03;103959.41;;;7.51;88.66
63111;BME280;49201;53.426;10.300;2023-02-04T15:13:28;103963.41;;;7.38;89.58
63111;BME280;49201;53.426;10.300;2023-02-04T15:15:54;103962.78;;;7.30;91.72
63111;BME280;49201;53.426;10.300;2023-02-04T15:18:19;103960.97;;;7.19;93.50
63111;BME280;49201;53.426;10.300;2023-02-04T15:20:44;103958.19;;;7.06;96.03
63111;BME280;49201;53.426;10.300;2023-02-04T15:23:10;103960.59;;;6.85;97.13
63111;BME280;49201;53.426;10.300;2023-02-04T15:25:38;103959.41;;;6.61;100.00
63111;BME280;49201;53.426;10.300;2023-02-04T15:28:04;103958.84;;;6.45;100.00
63111;BME280;49201;53.426;10.300;2023-02-04T15:30:30;103959.56;;;6.24;100.00
63111;BME280;49201;53.426;10.300;2023-02-04T15:32:55;103963.44;;;6.11;100.00
63111;BME280;49201;53.426;10.300;2023-02-04T15:35:20;103967.34;;;5.97;100.00
63111;BME280;49201;53.426;10.300;2023-02-04T15:37:46;103971.53;;;5.78;100.00
63111;BME280;49201;53.426;10.300;2023-02-04T15:40:12;103966.63;;;5.71;100.00
63111;BME280;49201;53.426;10.300;2023-02-04T15:42:38;103966.81;;;5.54;100.00
63111;BME280;49201;53.426;10.300;2023-02-04T15:45:04;103955.38;;;5.41;100.00
63111;BME280;49201;53.426;10.300;2023-02-04T15:47:30;103968.16;;;5.32;100.00
63111;BME280;49201;53.426;10.300;2023-02-04T15:49:56;103961.63;;;5.26;100.00
63111;BME280;49201;53.426;10.300;2023-02-04T15:52:21;103977.81;;;5.18;100.00
63111;BME280;49201;53.426;10.300;2023-02-04T15:54:47;103974.88;;;5.13;100.00
63111;BME280;49201;53.426;10.300;2023-02-04T15:57:12;103981.81;;;5.06;100.00
63111;BME280;49201;53.426;10.300;2023-02-04T15:59:38;103982.50;;;4.86;100.00
63111;BME280;49201;53.426;10.300;2023-02-04T16:02:03;103980.56;;;4.84;100.00
63111;BME280;49201;53.426;10.300;2023-02-04T16:04:28;103980.13;;;4.79;100.00
63111;BME280;49201;53.426;10.300;2023-02-04T16:06:54;103981.53;;;4.67;100.00
63111;BME280;49201;53.426;10.300;2023-02-04T16:09:19;103987.69;;;4.61;100.00
63111;BME280;49201;53.426;10.300;2023-02-04T16:11:45;103987.84;;;4.62;100.00
63111;BME280;49201;53.426;10.300;2023-02-04T16:14:10;103990.38;;;4.54;100.00
63111;BME280;49201;53.426;10.300;2023-02-04T16:16:35;103992.66;;;4.51;100.00
63111;BME280;49201;53.426;10.300;2023-02-04T16:19:01;103995.28;;;4.25;100.00
63111;BME280;49201;53.426;10.300;2023-02-04T16:21:26;103990.00;;;4.32;100.00
63111;BME280;49201;53.426;10.300;2023-02-04T16:23:52;103996.25;;;4.36;100.00
63111;BME280;49201;53.426;10.300;2023-02-04T16:26:17;104005.09;;;4.22;100.00
63111;BME280;49201;53.426;10.300;2023-02-04T16:28:42;104005.13;;;4.14;100.00
63111;BME280;49201;53.426;10.300;2023-02-04T16:31:12;104002.88;;;4.17;100.00
63111;BME280;49201;53.426;10.300;2023-02-04T16:33:37;104002.88;;;4.17;100.00
63111;BME280;49201;53.426;10.300;2023-02-04T16:36:08;104001.88;;;4.06;100.00
63111;BME280;49201;53.426;10.300;2023-02-04T16:38:36;104006.47;;;4.02;100.00
63111;BME280;49201;53.426;10.300;2023-02-04T16:41:04;104010.22;;;3.97;100.00
63111;BME280;49201;53.426;10.300;2023-02-04T16:43:30;104008.88;;;3.92;100.00
63111;BME280;49201;53.426;10.300;2023-02-04T16:45:55;104014.53;;;3.81;100.00
63111;BME280;49201;53.426;10.300;2023-02-04T16:48:21;104011.72;;;3.78;100.00
63111;BME280;49201;53.426;10.300;2023-02-04T16:50:46;104017.25;;;3.65;100.00
63111;BME280;49201;53.426;10.300;2023-02-04T16:53:12;104022.91;;;3.63;100.00
63111;BME280;49201;53.426;10.300;2023-02-04T16:55:44;104015.13;;;3.53;100.00
63111;BME280;49201;53.426;10.300;2023-02-04T16:58:11;104019.75;;;3.48;100.00
63111;BME280;49201;53.426;10.300;2023-02-04T17:00:36;104024.81;;;3.40;100.00
63111;BME280;49201;53.426;10.300;2023-02-04T17:03:06;104017.66;;;3.36;100.00
63111;BME280;49201;53.426;10.300;2023-02-04T17:05:32;104021.06;;;3.28;100.00
63111;BME280;49201;53.426;10.300;2023-02-04T17:07:57;104021.19;;;3.21;100.00
63111;BME280;49201;53.426;10.300;2023-02-04T17:10:24;104024.19;;;3.17;100.00
63111;BME280;49201;53.426;10.300;2023-02-04T17:13:08;104030.41;;;3.12;100.00
63111;BME280;49201;53.426;10.300;2023-02-04T17:15:34;104023.38;;;3.09;100.00
63111;BME280;49201;53.426;10.300;2023-02-04T17:17:59;104031.13;;;3.11;100.00
63111;BME280;49201;53.426;10.300;2023-02-04T17:20:24;104027.25;;;3.06;100.00
63111;BME280;49201;53.426;10.300;2023-02-04T17:22:50;104026.97;;;3.03;100.00
63111;BME280;49201;53.426;10.300;2023-02-04T17:25:17;104032.88;;;2.95;100.00
63111;BME280;49201;53.426;10.300;2023-02-04T17:27:42;104028.25;;;2.91;100.00
63111;BME280;49201;53.426;10.300;2023-02-04T17:30:08;104020.50;;;2.89;100.00
63111;BME280;49201;53.426;10.300;2023-02-04T17:32:34;104016.03;;;2.87;100.00
63111;BME280;49201;53.426;10.300;2023-02-04T17:34:59;104027.00;;;2.79;100.00
63111;BME280;49201;53.426;10.300;2023-02-04T17:37:26;104027.56;;;2.76;100.00
63111;BME280;49201;53.426;10.300;2023-02-04T17:39:52;104034.72;;;2.72;100.00
63111;BME280;49201;53.426;10.300;2023-02-04T17:42:17;104036.63;;;2.66;100.00
63111;BME280;49201;53.426;10.300;2023-02-04T17:44:43;104039.28;;;2.67;100.00
63111;BME280;49201;53.426;10.300;2023-02-04T17:47:08;104036.19;;;2.70;100.00
63111;BME280;49201;53.426;10.300;2023-02-04T17:49:33;104035.31;;;2.69;100.00
63111;BME280;49201;53.426;10.300;2023-02-04T17:51:59;104037.25;;;2.72;100.00
63111;BME280;49201;53.426;10.300;2023-02-04T17:54:24;104028.16;;;2.74;100.00
63111;BME280;49201;53.426;10.300;2023-02-04T17:56:52;104032.50;;;2.75;100.00
63111;BME280;49201;53.426;10.300;2023-02-04T17:59:20;104025.63;;;2.74;100.00
63111;BME280;49201;53.426;10.300;2023-02-04T18:01:45;104027.56;;;2.76;100.00
63111;BME280;49201;53.426;10.300;2023-02-04T18:04:12;104024.91;;;2.75;100.00
63111;BME280;49201;53.426;10.300;2023-02-04T18:06:38;104022.69;;;2.78;100.00
63111;BME280;49201;53.426;10.300;2023-02-04T18:09:11;104017.94;;;2.81;100.00
63111;BME280;49201;53.426;10.300;2023-02-04T18:11:39;104019.56;;;2.80;100.00
63111;BME280;49201;53.426;10.300;2023-02-04T18:14:12;104020.47;;;2.81;100.00
63111;BME280;49201;53.426;10.300;2023-02-04T18:16:39;104023.59;;;2.78;100.00
63111;BME280;49201;53.426;10.300;2023-02-04T18:19:21;104021.22;;;2.80;100.00
63111;BME280;49201;53.426;10.300;2023-02-04T18:21:52;104025.78;;;2.75;100.00
63111;BME280;49201;53.426;10.300;2023-02-04T18:24:33;104029.97;;;2.75;100.00
63111;BME280;49201;53.426;10.300;2023-02-04T18:27:08;104032.34;;;2.73;100.00
63111;BME280;49201;53.426;10.300;2023-02-04T18:29:42;104035.59;;;2.72;100.00
63111;BME280;49201;53.426;10.300;2023-02-04T18:37:51;104042.88;;;2.69;100.00
63111;BME280;49201;53.426;10.300;2023-02-04T18:40:28;104047.03;;;2.69;100.00
63111;BME280;49201;53.426;10.300;2023-02-04T18:45:30;104041.09;;;2.68;100.00
63111;BME280;49201;53.426;10.300;2023-02-04T18:47:58;104043.47;;;2.67;100.00
63111;BME280;49201;53.426;10.300;2023-02-04T18:50:30;104049.13;;;2.64;100.00
63111;BME280;49201;53.426;10.300;2023-02-04T18:53:00;104040.63;;;2.64;100.00
63111;BME280;49201;53.426;10.300;2023-02-04T18:55:38;104030.34;;;2.62;100.00
63111;BME280;49201;53.426;10.300;2023-02-04T19:03:30;104047.59;;;2.58;100.00
63111;BME280;49201;53.426;10.300;2023-02-04T19:06:00;104047.75;;;2.59;100.00
63111;BME280;49201;53.426;10.300;2023-02-04T19:08:41;104048.47;;;2.58;100.00
63111;BME280;49201;53.426;10.300;2023-02-04T19:13:54;104051.91;;;2.59;100.00
63111;BME280;49201;53.426;10.300;2023-02-04T19:16:40;104052.81;;;2.59;100.00
63111;BME280;49201;53.426;10.300;2023-02-04T19:19:33;104051.31;;;2.61;100.00
63111;BME280;49201;53.426;10.300;2023-02-04T19:21:59;104055.00;;;2.56;100.00
63111;BME280;49201;53.426;10.300;2023-02-04T19:24:26;104057.88;;;2.59;100.00
63111;BME280;49201;53.426;10.300;2023-02-04T19:26:58;104051.75;;;2.57;100.00
63111;BME280;49201;53.426;10.300;2023-02-04T19:31:55;104043.13;;;2.55;100.00
63111;BME280;49201;53.426;10.300;2023-02-04T19:34:32;104054.09;;;2.56;100.00
63111;BME280;49201;53.426;10.300;2023-02-04T19:36:58;104043.13;;;2.55;100.00
63111;BME280;49201;53.426;10.300;2023-02-04T19:41:55;104048.34;;;2.57;100.00
63111;BME280;49201;53.426;10.300;2023-02-04T19:49:42;104053.53;;;2.58;100.00
63111;BME280;49201;53.426;10.300;2023-02-04T19:52:23;104049.38;;;2.59;100.00
63111;BME280;49201;53.426;10.300;2023-02-04T19:54:52;104051.44;;;2.54;100.00
63111;BME280;49201;53.426;10.300;2023-02-04T19:57:24;104059.03;;;2.54;100.00
63111;BME280;49201;53.426;10.300;2023-02-04T19:59:54;104058.88;;;2.53;100.00
63111;BME280;49201;53.426;10.300;2023-02-04T20:04:58;104060.06;;;2.56;100.00
63111;BME280;49201;53.426;10.300;2023-02-04T20:07:25;104056.63;;;2.56;100.00
63111;BME280;49201;53.426;10.300;2023-02-04T20:12:43;104057.28;;;2.62;100.00
63111;BME280;49201;53.426;10.300;2023-02-04T20:15:16;104052.38;;;2.63;100.00
63111;BME280;49201;53.426;10.300;2023-02-04T20:17:47;104044.66;;;2.62;100.00
63111;BME280;49201;53.426;10.300;2023-02-04T20:20:20;104051.88;;;2.50;100.00
63111;BME280;49201;53.426;10.300;2023-02-04T20:22:47;104047.84;;;2.52;100.00
63111;BME280;49201;53.426;10.300;2023-02-04T20:27:51;104042.44;;;2.41;100.00
63111;BME280;49201;53.426;10.300;2023-02-04T20:30:26;104039.31;;;2.43;100.00
63111;BME280;49201;53.426;10.300;2023-02-04T20:38:17;104030.50;;;2.31;100.00
63111;BME280;49201;53.426;10.300;2023-02-04T20:40:43;104023.56;;;2.22;100.00
63111;BME280;49201;53.426;10.300;2023-02-04T20:43:19;104020.13;;;2.21;100.00
63111;BME280;49201;53.426;10.300;2023-02-04T20:45:46;104025.47;;;2.16;100.00
63111;BME280;49201;53.426;10.300;2023-02-04T20:50:48;104018.97;;;2.02;100.00
63111;BME280;49201;53.426;10.300;2023-02-04T20:55:56;104023.97;;;1.94;100.00
63111;BME280;49201;53.426;10.300;2023-02-04T20:58:33;104023.63;;;1.91;100.00
63111;BME280;49201;53.426;10.300;2023-02-04T21:00:59;104026.09;;;1.82;100.00
63111;BME280;49201;53.426;10.300;2023-02-04T21:03:36;104029.38;;;1.81;100.00
63111;BME280;49201;53.426;10.300;2023-02-04T21:06:19;104029.63;;;1.76;100.00
63111;BME280;49201;53.426;10.300;2023-02-04T21:08:47;104022.84;;;1.68;100.00
63111;BME280;49201;53.426;10.300;2023-02-04T21:11:14;104028.31;;;1.64;100.00
63111;BME280;49201;53.426;10.300;2023-02-04T21:13:39;104033.94;;;1.61;100.00
63111;BME280;49201;53.426;10.300;2023-02-04T21:16:05;104033.94;;;1.61;100.00
63111;BME280;49201;53.426;10.300;2023-02-04T21:18:32;104023.94;;;1.54;100.00
63111;BME280;49201;53.426;10.300;2023-02-04T21:21:00;104032.81;;;1.51;100.00
63111;BME280;49201;53.426;10.300;2023-02-04T21:23:26;104035.16;;;1.49;100.00
63111;BME280;49201;53.426;10.300;2023-02-04T21:25:51;104043.16;;;1.45;100.00
63111;BME280;49201;53.426;10.300;2023-02-04T21:28:17;104051.28;;;1.43;100.00
63111;BME280;49201;53.426;10.300;2023-02-04T21:30:42;104050.06;;;1.39;100.00
63111;BME280;49201;53.426;10.300;2023-02-04T21:33:08;104034.94;;;1.39;100.00
63111;BME280;49201;53.426;10.300;2023-02-04T21:35:35;104034.59;;;1.36;100.00
63111;BME280;49201;53.426;10.300;2023-02-04T21:38:01;104038.25;;;1.31;100.00
63111;BME280;49201;53.426;10.300;2023-02-04T21:40:30;104031.81;;;1.26;100.00
63111;BME280;49201;53.426;10.300;2023-02-04T21:42:56;104040.84;;;1.24;100.00
63111;BME280;49201;53.426;10.300;2023-02-04T21:45:23;104035.13;;;1.18;100.00
63111;BME280;49201;53.426;10.300;2023-02-04T21:47:49;104052.63;;;1.17;100.00
63111;BME280;49201;53.426;10.300;2023-02-04T21:50:16;104046.19;;;1.12;100.00
63111;BME280;49201;53.426;10.300;2023-02-04T21:52:42;104046.97;;;1.04;100.00
63111;BME280;49201;53.426;10.300;2023-02-04T21:55:10;104050.63;;;0.99;100.00
63111;BME280;49201;53.426;10.300;2023-02-04T21:57:36;104044.38;;;0.95;100.00
63111;BME280;49201;53.426;10.300;2023-02-04T22:00:04;104038.97;;;0.92;100.00
63111;BME280;49201;53.426;10.300;2023-02-04T22:02:30;104054.34;;;0.87;100.00
63111;BME280;49201;53.426;10.300;2023-02-04T22:04:55;104057.94;;;0.89;100.00
63111;BME280;49201;53.426;10.300;2023-02-04T22:07:21;104054.34;;;0.87;100.00
63111;BME280;49201;53.426;10.300;2023-02-04T22:09:46;104047.19;;;0.83;100.00
63111;BME280;49201;53.426;10.300;2023-02-04T22:12:15;104043.44;;;0.79;100.00